sensor_id;sensor_type;location;lat;lon;timestamp;P1;durP1;ratioP1;P2;durP2;ratioP2
16662;SDS011;8445;51.270;9.434;2023-08-06T00:00:29;14.45;;;13.48;;
16662;SDS011;8445;51.270;9.434;2023-08-06T00:02:54;15.90;;;13.63;;
16662;SDS011;8445;51.270;9.434;2023-08-06T00:05:20;14.00;;;13.10;;
16662;SDS011;8445;51.270;9.434;2023-08-06T00:07:47;14.65;;;13.60;;
16662;SDS011;8445;51.270;9.434;2023-08-06T00:10:13;14.93;;;13.63;;
16662;SDS011;8445;51.270;9.434;2023-08-06T00:12:39;14.75;;;13.35;;
16662;SDS011;8445;51.270;9.434;2023-08-06T00:15:05;15.55;;;14.27;;
16662;SDS011;8445;51.270;9.434;2023-08-06T00:17:35;15.63;;;13.95;;
16662;SDS011;8445;51.270;9.434;2023-08-06T00:20:02;14.80;;;13.60;;
16662;SDS011;8445;51.270;9.434;2023-08-06T00:22:35;14.30;;;13.18;;
16662;SDS011;8445;51.270;9.434;2023-08-06T00:25:03;15.07;;;13.32;;
16662;SDS011;8445;51.270;9.434;2023-08-06T00:27:30;14.10;;;13.05;;
16662;SDS011;8445;51.270;9.434;2023-08-06T00:29:57;14.70;;;13.70;;
16662;SDS011;8445;51.270;9.434;2023-08-06T00:32:23;14.77;;;13.77;;
16662;SDS011;8445;51.270;9.434;2023-08-06T00:34:49;14.50;;;13.50;;
16662;SDS011;8445;51.270;9.434;2023-08-06T00:37:19;14.65;;;13.55;;
16662;SDS011;8445;51.270;9.434;2023-08-06T00:39:45;14.82;;;13.65;;
16662;SDS011;8445;51.270;9.434;2023-08-06T00:42:11;15.40;;;14.05;;
16662;SDS011;8445;51.270;9.434;2023-08-06T00:44:38;14.68;;;13.70;;
16662;SDS011;8445;51.270;9.434;2023-08-06T00:47:06;14.27;;;13.27;;
16662;SDS011;8445;51.270;9.434;2023-08-06T00:49:34;14.30;;;13.10;;
16662;SDS011;8445;51.270;9.434;2023-08-06T00:52:02;13.88;;;12.98;;
16662;SDS011;8445;51.270;9.434;2023-08-06T00:54:35;14.50;;;13.32;;
16662;SDS011;8445;51.270;9.434;2023-08-06T00:57:02;14.10;;;12.85;;
16662;SDS011;8445;51.270;9.434;2023-08-06T00:59:32;13.55;;;12.60;;
16662;SDS011;8445;51.270;9.434;2023-08-06T01:01:58;13.50;;;12.57;;
16662;SDS011;8445;51.270;9.434;2023-08-06T01:04:25;13.23;;;12.07;;
16662;SDS011;8445;51.270;9.434;2023-08-06T01:06:55;12.45;;;11.65;;
16662;SDS011;8445;51.270;9.434;2023-08-06T01:13:38;13.95;;;12.77;;
16662;SDS011;8445;51.270;9.434;2023-08-06T01:15:55;13.88;;;12.88;;
16662;SDS011;8445;51.270;9.434;2023-08-06T01:18:25;14.18;;;13.18;;
16662;SDS011;8445;51.270;9.434;2023-08-06T01:20:51;14.27;;;13.13;;
16662;SDS011;8445;51.270;9.434;2023-08-06T01:23:18;13.98;;;12.77;;
16662;SDS011;8445;51.270;9.434;2023-08-06T01:26:08;13.88;;;12.70;;
16662;SDS011;8445;51.270;9.434;2023-08-06T01:31:31;13.93;;;12.73;;
16662;SDS011;8445;51.270;9.434;2023-08-06T01:34:03;12.95;;;11.73;;
16662;SDS011;8445;51.270;9.434;2023-08-06T01:36:35;16.23;;;12.63;;
16662;SDS011;8445;51.270;9.434;2023-08-06T01:39:01;14.57;;;13.15;;
16662;SDS011;8445;51.270;9.434;2023-08-06T01:41:28;13.60;;;12.48;;
16662;SDS011;8445;51.270;9.434;2023-08-06T01:43:53;13.40;;;12.30;;
16662;SDS011;8445;51.270;9.434;2023-08-06T01:46:19;13.30;;;12.30;;
16662;SDS011;8445;51.270;9.434;2023-08-06T01:48:45;12.63;;;11.82;;
16662;SDS011;8445;51.270;9.434;2023-08-06T01:51:11;12.80;;;12.00;;
16662;SDS011;8445;51.270;9.434;2023-08-06T01:53:37;13.50;;;12.50;;
16662;SDS011;8445;51.270;9.434;2023-08-06T01:56:03;20.25;;;18.38;;
16662;SDS011;8445;51.270;9.434;2023-08-06T01:58:29;15.50;;;14.18;;
16662;SDS011;8445;51.270;9.434;2023-08-06T02:00:55;12.95;;;12.10;;
16662;SDS011;8445;51.270;9.434;2023-08-06T02:03:21;12.60;;;11.60;;
16662;SDS011;8445;51.270;9.434;2023-08-06T02:05:47;12.77;;;12.07;;
16662;SDS011;8445;51.270;9.434;2023-08-06T02:08:13;12.82;;;11.75;;
16662;SDS011;8445;51.270;9.434;2023-08-06T02:10:39;12.38;;;11.40;;
16662;SDS011;8445;51.270;9.434;2023-08-06T02:13:06;12.35;;;11.63;;
16662;SDS011;8445;51.270;9.434;2023-08-06T02:15:32;13.00;;;12.07;;
16662;SDS011;8445;51.270;9.434;2023-08-06T02:17:58;12.52;;;11.68;;
16662;SDS011;8445;51.270;9.434;2023-08-06T02:20:24;12.52;;;11.73;;
16662;SDS011;8445;51.270;9.434;2023-08-06T02:22:50;12.35;;;11.57;;
16662;SDS011;8445;51.270;9.434;2023-08-06T02:25:16;12.35;;;11.55;;
16662;SDS011;8445;51.270;9.434;2023-08-06T02:27:42;12.23;;;11.52;;
16662;SDS011;8445;51.270;9.434;2023-08-06T02:30:08;12.55;;;11.75;;
16662;SDS011;8445;51.270;9.434;2023-08-06T02:32:34;13.25;;;12.35;;
16662;SDS011;8445;51.270;9.434;2023-08-06T02:35:01;13.55;;;12.65;;
16662;SDS011;8445;51.270;9.434;2023-08-06T02:37:27;14.07;;;13.15;;
16662;SDS011;8445;51.270;9.434;2023-08-06T02:39:53;14.00;;;12.95;;
16662;SDS011;8445;51.270;9.434;2023-08-06T02:42:19;13.77;;;12.65;;
16662;SDS011;8445;51.270;9.434;2023-08-06T02:44:45;13.65;;;12.75;;
16662;SDS011;8445;51.270;9.434;2023-08-06T02:47:11;13.63;;;12.73;;
16662;SDS011;8445;51.270;9.434;2023-08-06T02:49:37;13.40;;;12.60;;
16662;SDS011;8445;51.270;9.434;2023-08-06T02:52:03;14.15;;;13.15;;
16662;SDS011;8445;51.270;9.434;2023-08-06T02:54:29;13.95;;;12.93;;
16662;SDS011;8445;51.270;9.434;2023-08-06T02:56:56;13.80;;;12.80;;
16662;SDS011;8445;51.270;9.434;2023-08-06T02:59:30;14.10;;;12.82;;
16662;SDS011;8445;51.270;9.434;2023-08-06T03:02:17;14.50;;;13.48;;
16662;SDS011;8445;51.270;9.434;2023-08-06T03:04:57;14.10;;;12.73;;
16662;SDS011;8445;51.270;9.434;2023-08-06T03:07:27;14.13;;;12.88;;
16662;SDS011;8445;51.270;9.434;2023-08-06T03:09:59;13.98;;;12.68;;
16662;SDS011;8445;51.270;9.434;2023-08-06T03:12:27;13.77;;;12.68;;
16662;SDS011;8445;51.270;9.434;2023-08-06T03:14:54;14.95;;;12.80;;
16662;SDS011;8445;51.270;9.434;2023-08-06T03:17:20;14.63;;;13.00;;
16662;SDS011;8445;51.270;9.434;2023-08-06T03:19:47;14.07;;;12.75;;
16662;SDS011;8445;51.270;9.434;2023-08-06T03:22:13;15.02;;;12.70;;
16662;SDS011;8445;51.270;9.434;2023-08-06T03:24:39;13.57;;;12.32;;
16662;SDS011;8445;51.270;9.434;2023-08-06T03:27:06;16.50;;;15.25;;
16662;SDS011;8445;51.270;9.434;2023-08-06T03:29:32;13.57;;;12.65;;
16662;SDS011;8445;51.270;9.434;2023-08-06T03:32:00;12.70;;;11.70;;
16662;SDS011;8445;51.270;9.434;2023-08-06T03:34:26;12.50;;;11.60;;
16662;SDS011;8445;51.270;9.434;2023-08-06T03:36:53;12.55;;;11.75;;
16662;SDS011;8445;51.270;9.434;2023-08-06T03:39:19;13.02;;;12.23;;
16662;SDS011;8445;51.270;9.434;2023-08-06T03:41:45;12.98;;;12.07;;
16662;SDS011;8445;51.270;9.434;2023-08-06T03:44:11;12.80;;;12.00;;
16662;SDS011;8445;51.270;9.434;2023-08-06T03:46:37;12.43;;;11.73;;
16662;SDS011;8445;51.270;9.434;2023-08-06T03:49:05;12.15;;;11.20;;
16662;SDS011;8445;51.270;9.434;2023-08-06T03:51:31;12.07;;;11.27;;
16662;SDS011;8445;51.270;9.434;2023-08-06T03:53:57;12.07;;;11.18;;
16662;SDS011;8445;51.270;9.434;2023-08-06T03:56:23;11.65;;;10.85;;
16662;SDS011;8445;51.270;9.434;2023-08-06T03:58:49;11.35;;;10.32;;
16662;SDS011;8445;51.270;9.434;2023-08-06T04:01:14;11.85;;;10.90;;
16662;SDS011;8445;51.270;9.434;2023-08-06T04:03:43;11.18;;;10.52;;
16662;SDS011;8445;51.270;9.434;2023-08-06T04:06:09;11.15;;;10.35;;
16662;SDS011;8445;51.270;9.434;2023-08-06T04:08:36;11.07;;;10.20;;
16662;SDS011;8445;51.270;9.434;2023-08-06T04:11:01;11.75;;;10.40;;
16662;SDS011;8445;51.270;9.434;2023-08-06T04:13:28;10.95;;;10.05;;
16662;SDS011;8445;51.270;9.434;2023-08-06T04:16:00;11.02;;;10.13;;
16662;SDS011;8445;51.270;9.434;2023-08-06T04:18:27;10.80;;;9.73;;
16662;SDS011;8445;51.270;9.434;2023-08-06T04:20:54;10.98;;;10.38;;
16662;SDS011;8445;51.270;9.434;2023-08-06T04:23:22;10.90;;;10.00;;
16662;SDS011;8445;51.270;9.434;2023-08-06T04:25:50;11.35;;;10.50;;
16662;SDS011;8445;51.270;9.434;2023-08-06T04:28:16;10.48;;;9.90;;
16662;SDS011;8445;51.270;9.434;2023-08-06T04:30:42;10.90;;;10.13;;
16662;SDS011;8445;51.270;9.434;2023-08-06T04:33:08;11.60;;;10.77;;
16662;SDS011;8445;51.270;9.434;2023-08-06T04:35:34;11.77;;;10.85;;
16662;SDS011;8445;51.270;9.434;2023-08-06T04:38:00;11.77;;;10.98;;
16662;SDS011;8445;51.270;9.434;2023-08-06T04:40:35;11.73;;;10.55;;
16662;SDS011;8445;51.270;9.434;2023-08-06T04:43:03;11.13;;;10.40;;
16662;SDS011;8445;51.270;9.434;2023-08-06T04:45:32;11.77;;;10.60;;
16662;SDS011;8445;51.270;9.434;2023-08-06T04:47:58;11.50;;;10.80;;
16662;SDS011;8445;51.270;9.434;2023-08-06T04:50:24;11.07;;;10.20;;
16662;SDS011;8445;51.270;9.434;2023-08-06T04:52:57;10.90;;;10.30;;
16662;SDS011;8445;51.270;9.434;2023-08-06T04:55:24;11.20;;;10.40;;
16662;SDS011;8445;51.270;9.434;2023-08-06T04:57:57;11.50;;;10.60;;
16662;SDS011;8445;51.270;9.434;2023-08-06T05:00:37;10.65;;;9.98;;
16662;SDS011;8445;51.270;9.434;2023-08-06T05:03:06;11.68;;;10.35;;
16662;SDS011;8445;51.270;9.434;2023-08-06T05:05:34;10.82;;;9.93;;
16662;SDS011;8445;51.270;9.434;2023-08-06T05:08:01;10.50;;;9.63;;
16662;SDS011;8445;51.270;9.434;2023-08-06T05:10:28;11.10;;;9.50;;
16662;SDS011;8445;51.270;9.434;2023-08-06T05:12:56;9.43;;;8.82;;
16662;SDS011;8445;51.270;9.434;2023-08-06T05:15:22;10.38;;;9.63;;
16662;SDS011;8445;51.270;9.434;2023-08-06T05:17:54;11.38;;;9.10;;
16662;SDS011;8445;51.270;9.434;2023-08-06T05:20:21;10.20;;;9.60;;
16662;SDS011;8445;51.270;9.434;2023-08-06T05:22:49;10.18;;;9.48;;
16662;SDS011;8445;51.270;9.434;2023-08-06T05:25:15;10.70;;;9.80;;
16662;SDS011;8445;51.270;9.434;2023-08-06T05:27:46;9.65;;;9.05;;
16662;SDS011;8445;51.270;9.434;2023-08-06T05:30:19;10.07;;;9.32;;
16662;SDS011;8445;51.270;9.434;2023-08-06T05:32:55;9.27;;;8.77;;
16662;SDS011;8445;51.270;9.434;2023-08-06T05:35:23;8.93;;;8.20;;
16662;SDS011;8445;51.270;9.434;2023-08-06T05:37:50;9.05;;;8.55;;
16662;SDS011;8445;51.270;9.434;2023-08-06T05:40:27;9.50;;;8.85;;
16662;SDS011;8445;51.270;9.434;2023-08-06T05:42:58;9.40;;;8.88;;
16662;SDS011;8445;51.270;9.434;2023-08-06T05:45:29;9.48;;;8.85;;
16662;SDS011;8445;51.270;9.434;2023-08-06T05:47:55;9.90;;;9.10;;
16662;SDS011;8445;51.270;9.434;2023-08-06T05:50:23;10.43;;;9.35;;
16662;SDS011;8445;51.270;9.434;2023-08-06T05:52:56;9.15;;;8.65;;
16662;SDS011;8445;51.270;9.434;2023-08-06T05:55:29;9.80;;;9.00;;
16662;SDS011;8445;51.270;9.434;2023-08-06T05:57:57;9.02;;;8.35;;
16662;SDS011;8445;51.270;9.434;2023-08-06T06:00:24;9.07;;;8.43;;
16662;SDS011;8445;51.270;9.434;2023-08-06T06:02:49;9.23;;;8.60;;
16662;SDS011;8445;51.270;9.434;2023-08-06T06:05:17;9.73;;;8.40;;
16662;SDS011;8445;51.270;9.434;2023-08-06T06:07:43;8.85;;;8.20;;
16662;SDS011;8445;51.270;9.434;2023-08-06T06:10:12;9.40;;;8.60;;
16662;SDS011;8445;51.270;9.434;2023-08-06T06:12:38;8.75;;;8.20;;
16662;SDS011;8445;51.270;9.434;2023-08-06T06:15:06;8.98;;;8.38;;
16662;SDS011;8445;51.270;9.434;2023-08-06T06:17:32;8.80;;;8.00;;
16662;SDS011;8445;51.270;9.434;2023-08-06T06:19:58;7.78;;;7.30;;
16662;SDS011;8445;51.270;9.434;2023-08-06T06:22:24;8.27;;;7.63;;
16662;SDS011;8445;51.270;9.434;2023-08-06T06:24:50;8.85;;;8.25;;
16662;SDS011;8445;51.270;9.434;2023-08-06T06:27:16;8.30;;;7.80;;
16662;SDS011;8445;51.270;9.434;2023-08-06T06:29:44;8.07;;;7.57;;
16662;SDS011;8445;51.270;9.434;2023-08-06T06:32:10;8.23;;;7.63;;
16662;SDS011;8445;51.270;9.434;2023-08-06T06:34:36;8.38;;;7.88;;
16662;SDS011;8445;51.270;9.434;2023-08-06T06:37:02;8.95;;;8.07;;
16662;SDS011;8445;51.270;9.434;2023-08-06T06:39:28;8.43;;;7.97;;
16662;SDS011;8445;51.270;9.434;2023-08-06T06:41:54;8.13;;;7.63;;
16662;SDS011;8445;51.270;9.434;2023-08-06T06:44:28;8.38;;;7.68;;
16662;SDS011;8445;51.270;9.434;2023-08-06T06:46:54;8.40;;;7.60;;
16662;SDS011;8445;51.270;9.434;2023-08-06T06:49:20;8.27;;;7.53;;
16662;SDS011;8445;51.270;9.434;2023-08-06T06:51:46;8.15;;;7.60;;
16662;SDS011;8445;51.270;9.434;2023-08-06T06:54:12;7.93;;;7.32;;
16662;SDS011;8445;51.270;9.434;2023-08-06T06:56:38;8.13;;;7.50;;
16662;SDS011;8445;51.270;9.434;2023-08-06T06:59:03;8.80;;;8.07;;
16662;SDS011;8445;51.270;9.434;2023-08-06T07:01:29;8.05;;;7.65;;
16662;SDS011;8445;51.270;9.434;2023-08-06T07:03:55;8.88;;;8.27;;
16662;SDS011;8445;51.270;9.434;2023-08-06T07:06:22;9.25;;;8.38;;
16662;SDS011;8445;51.270;9.434;2023-08-06T07:08:48;7.97;;;7.47;;
16662;SDS011;8445;51.270;9.434;2023-08-06T07:11:14;8.10;;;7.43;;
16662;SDS011;8445;51.270;9.434;2023-08-06T07:13:39;8.60;;;7.80;;
16662;SDS011;8445;51.270;9.434;2023-08-06T07:16:05;8.20;;;7.60;;
16662;SDS011;8445;51.270;9.434;2023-08-06T07:18:31;8.73;;;7.97;;
16662;SDS011;8445;51.270;9.434;2023-08-06T07:20:57;8.10;;;7.60;;
16662;SDS011;8445;51.270;9.434;2023-08-06T07:23:24;8.32;;;7.65;;
16662;SDS011;8445;51.270;9.434;2023-08-06T07:25:51;8.43;;;7.70;;
16662;SDS011;8445;51.270;9.434;2023-08-06T07:28:20;8.50;;;8.00;;
16662;SDS011;8445;51.270;9.434;2023-08-06T07:30:48;7.97;;;7.38;;
16662;SDS011;8445;51.270;9.434;2023-08-06T07:33:15;7.72;;;7.28;;
16662;SDS011;8445;51.270;9.434;2023-08-06T07:35:40;8.43;;;7.93;;
16662;SDS011;8445;51.270;9.434;2023-08-06T07:38:06;7.80;;;7.10;;
16662;SDS011;8445;51.270;9.434;2023-08-06T07:40:32;7.63;;;7.10;;
16662;SDS011;8445;51.270;9.434;2023-08-06T07:43:01;7.47;;;6.97;;
16662;SDS011;8445;51.270;9.434;2023-08-06T07:45:27;8.27;;;7.63;;
16662;SDS011;8445;51.270;9.434;2023-08-06T07:47:53;7.90;;;7.40;;
16662;SDS011;8445;51.270;9.434;2023-08-06T07:50:19;10.77;;;9.98;;
16662;SDS011;8445;51.270;9.434;2023-08-06T07:52:45;8.50;;;7.95;;
16662;SDS011;8445;51.270;9.434;2023-08-06T07:55:11;8.60;;;8.05;;
16662;SDS011;8445;51.270;9.434;2023-08-06T07:57:36;8.65;;;8.15;;
16662;SDS011;8445;51.270;9.434;2023-08-06T08:00:03;8.88;;;8.02;;
16662;SDS011;8445;51.270;9.434;2023-08-06T08:02:37;7.97;;;7.45;;
16662;SDS011;8445;51.270;9.434;2023-08-06T08:05:03;8.13;;;7.63;;
16662;SDS011;8445;51.270;9.434;2023-08-06T08:07:32;7.97;;;7.40;;
16662;SDS011;8445;51.270;9.434;2023-08-06T08:09:58;7.47;;;6.78;;
16662;SDS011;8445;51.270;9.434;2023-08-06T08:12:24;7.60;;;7.10;;
16662;SDS011;8445;51.270;9.434;2023-08-06T08:14:50;7.35;;;6.88;;
16662;SDS011;8445;51.270;9.434;2023-08-06T08:17:15;7.13;;;6.53;;
16662;SDS011;8445;51.270;9.434;2023-08-06T08:19:41;7.43;;;6.90;;
16662;SDS011;8445;51.270;9.434;2023-08-06T08:22:07;7.25;;;6.60;;
16662;SDS011;8445;51.270;9.434;2023-08-06T08:24:34;7.10;;;6.70;;
16662;SDS011;8445;51.270;9.434;2023-08-06T08:27:00;8.15;;;7.07;;
16662;SDS011;8445;51.270;9.434;2023-08-06T08:29:27;7.88;;;7.00;;
16662;SDS011;8445;51.270;9.434;2023-08-06T08:31:56;7.30;;;6.80;;
16662;SDS011;8445;51.270;9.434;2023-08-06T08:34:23;7.60;;;7.10;;
16662;SDS011;8445;51.270;9.434;2023-08-06T08:36:50;9.13;;;8.50;;
16662;SDS011;8445;51.270;9.434;2023-08-06T08:39:17;9.15;;;8.48;;
16662;SDS011;8445;51.270;9.434;2023-08-06T08:41:43;9.95;;;9.23;;
16662;SDS011;8445;51.270;9.434;2023-08-06T08:44:10;8.90;;;8.20;;
16662;SDS011;8445;51.270;9.434;2023-08-06T08:46:39;7.95;;;7.45;;
16662;SDS011;8445;51.270;9.434;2023-08-06T08:49:06;10.40;;;9.90;;
16662;SDS011;8445;51.270;9.434;2023-08-06T08:51:33;9.65;;;8.82;;
16662;SDS011;8445;51.270;9.434;2023-08-06T08:54:03;7.78;;;7.10;;
16662;SDS011;8445;51.270;9.434;2023-08-06T08:56:30;6.78;;;6.38;;
16662;SDS011;8445;51.270;9.434;2023-08-06T08:58:56;7.28;;;6.20;;
16662;SDS011;8445;51.270;9.434;2023-08-06T09:01:22;6.97;;;6.38;;
16662;SDS011;8445;51.270;9.434;2023-08-06T09:03:49;8.10;;;7.40;;
16662;SDS011;8445;51.270;9.434;2023-08-06T09:06:17;8.35;;;7.85;;
16662;SDS011;8445;51.270;9.434;2023-08-06T09:11:39;9.52;;;9.00;;
16662;SDS011;8445;51.270;9.434;2023-08-06T09:14:10;7.40;;;6.50;;
16662;SDS011;8445;51.270;9.434;2023-08-06T09:16:38;11.90;;;10.93;;
16662;SDS011;8445;51.270;9.434;2023-08-06T09:19:12;10.13;;;9.57;;
16662;SDS011;8445;51.270;9.434;2023-08-06T09:21:45;10.25;;;9.45;;
16662;SDS011;8445;51.270;9.434;2023-08-06T09:24:15;7.13;;;6.60;;
16662;SDS011;8445;51.270;9.434;2023-08-06T09:26:47;7.60;;;7.00;;
16662;SDS011;8445;51.270;9.434;2023-08-06T09:29:14;9.48;;;8.77;;
16662;SDS011;8445;51.270;9.434;2023-08-06T09:31:43;10.55;;;9.85;;
16662;SDS011;8445;51.270;9.434;2023-08-06T09:34:18;8.85;;;8.35;;
16662;SDS011;8445;51.270;9.434;2023-08-06T09:36:53;10.30;;;9.70;;
16662;SDS011;8445;51.270;9.434;2023-08-06T09:39:29;9.80;;;9.27;;
16662;SDS011;8445;51.270;9.434;2023-08-06T09:41:57;9.93;;;9.20;;
16662;SDS011;8445;51.270;9.434;2023-08-06T09:44:30;9.05;;;8.15;;
16662;SDS011;8445;51.270;9.434;2023-08-06T09:47:02;7.05;;;6.45;;
16662;SDS011;8445;51.270;9.434;2023-08-06T09:52:01;6.18;;;5.82;;
16662;SDS011;8445;51.270;9.434;2023-08-06T09:54:29;5.88;;;5.47;;
16662;SDS011;8445;51.270;9.434;2023-08-06T09:56:57;6.25;;;5.95;;
16662;SDS011;8445;51.270;9.434;2023-08-06T09:59:25;6.00;;;5.45;;
16662;SDS011;8445;51.270;9.434;2023-08-06T10:01:52;6.18;;;5.60;;
16662;SDS011;8445;51.270;9.434;2023-08-06T10:04:24;6.00;;;5.60;;
16662;SDS011;8445;51.270;9.434;2023-08-06T10:06:56;6.43;;;6.03;;
16662;SDS011;8445;51.270;9.434;2023-08-06T10:09:26;6.40;;;5.80;;
16662;SDS011;8445;51.270;9.434;2023-08-06T10:12:03;6.10;;;5.68;;
16662;SDS011;8445;51.270;9.434;2023-08-06T10:14:32;6.05;;;5.65;;
16662;SDS011;8445;51.270;9.434;2023-08-06T10:17:03;6.03;;;5.72;;
16662;SDS011;8445;51.270;9.434;2023-08-06T10:19:31;6.50;;;6.10;;
16662;SDS011;8445;51.270;9.434;2023-08-06T10:22:08;6.43;;;6.13;;
16662;SDS011;8445;51.270;9.434;2023-08-06T10:24:48;7.82;;;7.22;;
16662;SDS011;8445;51.270;9.434;2023-08-06T10:27:34;9.70;;;9.10;;
16662;SDS011;8445;51.270;9.434;2023-08-06T10:32:49;9.25;;;8.55;;
16662;SDS011;8445;51.270;9.434;2023-08-06T10:35:30;8.98;;;8.48;;
16662;SDS011;8445;51.270;9.434;2023-08-06T10:45:54;7.20;;;6.80;;
16662;SDS011;8445;51.270;9.434;2023-08-06T10:48:37;7.13;;;6.60;;
16662;SDS011;8445;51.270;9.434;2023-08-06T10:51:10;7.60;;;6.85;;
16662;SDS011;8445;51.270;9.434;2023-08-06T10:53:41;7.05;;;6.55;;
16662;SDS011;8445;51.270;9.434;2023-08-06T10:58:41;9.18;;;8.43;;
16662;SDS011;8445;51.270;9.434;2023-08-06T11:01:08;8.80;;;8.20;;
16662;SDS011;8445;51.270;9.434;2023-08-06T11:03:36;9.13;;;8.52;;
16662;SDS011;8445;51.270;9.434;2023-08-06T11:06:03;9.13;;;8.65;;
16662;SDS011;8445;51.270;9.434;2023-08-06T11:08:40;8.93;;;8.45;;
16662;SDS011;8445;51.270;9.434;2023-08-06T11:11:14;9.77;;;9.27;;
16662;SDS011;8445;51.270;9.434;2023-08-06T11:13:43;8.10;;;7.70;;
16662;SDS011;8445;51.270;9.434;2023-08-06T11:16:14;8.10;;;7.70;;
16662;SDS011;8445;51.270;9.434;2023-08-06T11:18:42;8.68;;;8.20;;
16662;SDS011;8445;51.270;9.434;2023-08-06T11:21:08;8.77;;;8.18;;
16662;SDS011;8445;51.270;9.434;2023-08-06T11:23:35;8.40;;;8.00;;
16662;SDS011;8445;51.270;9.434;2023-08-06T11:26:01;9.00;;;8.55;;
16662;SDS011;8445;51.270;9.434;2023-08-06T11:28:28;9.07;;;8.68;;
16662;SDS011;8445;51.270;9.434;2023-08-06T11:30:54;8.60;;;8.20;;
16662;SDS011;8445;51.270;9.434;2023-08-06T11:33:23;8.27;;;7.80;;
16662;SDS011;8445;51.270;9.434;2023-08-06T11:35:56;7.40;;;7.00;;
16662;SDS011;8445;51.270;9.434;2023-08-06T11:38:25;5.70;;;5.40;;
16662;SDS011;8445;51.270;9.434;2023-08-06T11:40:55;6.55;;;6.05;;
16662;SDS011;8445;51.270;9.434;2023-08-06T11:43:22;7.07;;;6.78;;
16662;SDS011;8445;51.270;9.434;2023-08-06T11:45:50;7.35;;;6.85;;
16662;SDS011;8445;51.270;9.434;2023-08-06T11:48:19;7.45;;;7.05;;
16662;SDS011;8445;51.270;9.434;2023-08-06T11:50:45;8.65;;;8.15;;
16662;SDS011;8445;51.270;9.434;2023-08-06T11:53:14;8.77;;;8.02;;
16662;SDS011;8445;51.270;9.434;2023-08-06T11:55:40;8.50;;;8.00;;
16662;SDS011;8445;51.270;9.434;2023-08-06T11:58:08;8.73;;;8.20;;
16662;SDS011;8445;51.270;9.434;2023-08-06T12:00:39;8.30;;;7.80;;
16662;SDS011;8445;51.270;9.434;2023-08-06T12:03:07;5.40;;;5.10;;
16662;SDS011;8445;51.270;9.434;2023-08-06T12:05:35;6.95;;;6.60;;
16662;SDS011;8445;51.270;9.434;2023-08-06T12:08:01;7.57;;;7.10;;
16662;SDS011;8445;51.270;9.434;2023-08-06T12:10:29;5.80;;;5.40;;
16662;SDS011;8445;51.270;9.434;2023-08-06T12:12:56;5.38;;;5.00;;
16662;SDS011;8445;51.270;9.434;2023-08-06T12:15:23;6.05;;;5.43;;
16662;SDS011;8445;51.270;9.434;2023-08-06T12:17:49;6.22;;;5.60;;
16662;SDS011;8445;51.270;9.434;2023-08-06T12:20:15;6.32;;;5.88;;
16662;SDS011;8445;51.270;9.434;2023-08-06T12:22:41;5.82;;;5.53;;
16662;SDS011;8445;51.270;9.434;2023-08-06T12:25:08;5.53;;;5.18;;
16662;SDS011;8445;51.270;9.434;2023-08-06T12:27:38;5.68;;;5.18;;
16662;SDS011;8445;51.270;9.434;2023-08-06T12:30:11;6.05;;;5.72;;
16662;SDS011;8445;51.270;9.434;2023-08-06T12:32:39;6.85;;;6.53;;
16662;SDS011;8445;51.270;9.434;2023-08-06T12:35:06;6.80;;;6.40;;
16662;SDS011;8445;51.270;9.434;2023-08-06T12:37:38;6.05;;;5.65;;
16662;SDS011;8445;51.270;9.434;2023-08-06T12:40:04;6.15;;;5.70;;
16662;SDS011;8445;51.270;9.434;2023-08-06T12:42:31;6.25;;;5.90;;
16662;SDS011;8445;51.270;9.434;2023-08-06T12:45:03;5.75;;;5.40;;
16662;SDS011;8445;51.270;9.434;2023-08-06T12:47:35;6.15;;;5.75;;
16662;SDS011;8445;51.270;9.434;2023-08-06T12:50:07;5.88;;;5.57;;
16662;SDS011;8445;51.270;9.434;2023-08-06T12:52:37;5.75;;;5.45;;
16662;SDS011;8445;51.270;9.434;2023-08-06T12:55:07;5.75;;;5.43;;
16662;SDS011;8445;51.270;9.434;2023-08-06T12:57:35;5.40;;;5.10;;
16662;SDS011;8445;51.270;9.434;2023-08-06T13:00:01;5.90;;;5.50;;
16662;SDS011;8445;51.270;9.434;2023-08-06T13:02:30;5.10;;;4.90;;
16662;SDS011;8445;51.270;9.434;2023-08-06T13:05:04;6.20;;;5.80;;
16662;SDS011;8445;51.270;9.434;2023-08-06T13:07:31;6.10;;;5.70;;
16662;SDS011;8445;51.270;9.434;2023-08-06T13:10:01;6.13;;;5.45;;
16662;SDS011;8445;51.270;9.434;2023-08-06T13:12:35;6.03;;;5.63;;
16662;SDS011;8445;51.270;9.434;2023-08-06T13:15:04;5.93;;;5.63;;
16662;SDS011;8445;51.270;9.434;2023-08-06T13:17:36;9.52;;;6.13;;
16662;SDS011;8445;51.270;9.434;2023-08-06T13:20:04;6.60;;;6.13;;
16662;SDS011;8445;51.270;9.434;2023-08-06T13:22:32;6.30;;;5.80;;
16662;SDS011;8445;51.270;9.434;2023-08-06T13:24:59;6.95;;;6.45;;
16662;SDS011;8445;51.270;9.434;2023-08-06T13:27:28;7.10;;;6.55;;
16662;SDS011;8445;51.270;9.434;2023-08-06T13:29:56;6.90;;;6.50;;
16662;SDS011;8445;51.270;9.434;2023-08-06T13:32:24;11.25;;;10.40;;
16662;SDS011;8445;51.270;9.434;2023-08-06T13:34:51;6.28;;;5.88;;
16662;SDS011;8445;51.270;9.434;2023-08-06T13:37:17;6.10;;;5.70;;
16662;SDS011;8445;51.270;9.434;2023-08-06T13:39:44;5.97;;;5.57;;
16662;SDS011;8445;51.270;9.434;2023-08-06T13:42:13;5.78;;;5.47;;
16662;SDS011;8445;51.270;9.434;2023-08-06T13:44:42;6.80;;;6.20;;
16662;SDS011;8445;51.270;9.434;2023-08-06T13:47:11;6.85;;;6.30;;
16662;SDS011;8445;51.270;9.434;2023-08-06T13:49:38;7.43;;;7.03;;
16662;SDS011;8445;51.270;9.434;2023-08-06T13:52:07;7.80;;;7.40;;
16662;SDS011;8445;51.270;9.434;2023-08-06T13:54:39;7.90;;;7.30;;
16662;SDS011;8445;51.270;9.434;2023-08-06T13:57:11;7.30;;;6.80;;
16662;SDS011;8445;51.270;9.434;2023-08-06T13:59:42;7.07;;;6.57;;
16662;SDS011;8445;51.270;9.434;2023-08-06T14:02:10;6.32;;;5.93;;
16662;SDS011;8445;51.270;9.434;2023-08-06T14:04:40;6.70;;;6.20;;
16662;SDS011;8445;51.270;9.434;2023-08-06T14:07:06;9.57;;;8.68;;
16662;SDS011;8445;51.270;9.434;2023-08-06T14:09:36;6.10;;;5.70;;
16662;SDS011;8445;51.270;9.434;2023-08-06T14:12:03;12.20;;;10.65;;
16662;SDS011;8445;51.270;9.434;2023-08-06T14:14:32;5.60;;;5.30;;
16662;SDS011;8445;51.270;9.434;2023-08-06T14:16:59;5.75;;;5.40;;
16662;SDS011;8445;51.270;9.434;2023-08-06T14:19:28;5.88;;;5.57;;
16662;SDS011;8445;51.270;9.434;2023-08-06T14:21:56;5.85;;;5.45;;
16662;SDS011;8445;51.270;9.434;2023-08-06T14:24:24;6.10;;;5.75;;
16662;SDS011;8445;51.270;9.434;2023-08-06T14:26:51;6.07;;;5.78;;
16662;SDS011;8445;51.270;9.434;2023-08-06T14:29:18;5.60;;;5.20;;
16662;SDS011;8445;51.270;9.434;2023-08-06T14:31:49;7.85;;;5.32;;
16662;SDS011;8445;51.270;9.434;2023-08-06T14:34:17;5.60;;;5.30;;
16662;SDS011;8445;51.270;9.434;2023-08-06T14:36:44;8.20;;;5.90;;
16662;SDS011;8445;51.270;9.434;2023-08-06T14:39:10;6.30;;;5.80;;
16662;SDS011;8445;51.270;9.434;2023-08-06T14:41:44;6.05;;;5.65;;
16662;SDS011;8445;51.270;9.434;2023-08-06T14:44:15;5.80;;;5.40;;
16662;SDS011;8445;51.270;9.434;2023-08-06T14:46:42;5.63;;;5.10;;
16662;SDS011;8445;51.270;9.434;2023-08-06T14:49:08;5.35;;;5.05;;
16662;SDS011;8445;51.270;9.434;2023-08-06T14:51:37;5.35;;;5.05;;
16662;SDS011;8445;51.270;9.434;2023-08-06T14:54:07;6.03;;;5.45;;
16662;SDS011;8445;51.270;9.434;2023-08-06T14:56:35;5.85;;;5.45;;
16662;SDS011;8445;51.270;9.434;2023-08-06T14:59:06;5.90;;;5.50;;
16662;SDS011;8445;51.270;9.434;2023-08-06T15:01:34;5.95;;;5.55;;
16662;SDS011;8445;51.270;9.434;2023-08-06T15:04:03;5.90;;;5.50;;
16662;SDS011;8445;51.270;9.434;2023-08-06T15:06:31;6.15;;;5.72;;
16662;SDS011;8445;51.270;9.434;2023-08-06T15:09:05;6.22;;;5.90;;
16662;SDS011;8445;51.270;9.434;2023-08-06T15:11:37;6.82;;;6.38;;
16662;SDS011;8445;51.270;9.434;2023-08-06T15:14:04;6.43;;;6.03;;
16662;SDS011;8445;51.270;9.434;2023-08-06T15:16:34;8.77;;;8.18;;
16662;SDS011;8445;51.270;9.434;2023-08-06T15:19:00;7.95;;;7.45;;
16662;SDS011;8445;51.270;9.434;2023-08-06T15:21:27;6.30;;;6.00;;